HTY weather

Hatay Airport
Hatay, Hatay Province, Turkey

Public forecast

Using degrees Celsius for public forecast. Weather courtesy of forecast.io.

METAR (pilot weather report)

Retrieved 2019/06/16 16:50 UTC (1 hour ago):

LTDA 161650Z 24014KT CAVOK 27/17 Q1006 NOSIG

TAF (pilot weather forecast)

Forecast is more than 12 hours old.

Closest forecast is Aleppo International Airport, 46.9 nm (86.9 km) ESE. Retrieved 2012/10/26 18:35 UTC (7 years ago):

TAF OSAP 261700Z 2618/2718 24010KT 9999 SCT030 BKN100 BECMG 2620/2622 VRB03KT 3000 BR BECMG 2707/2709 24012KT 7000 SCT030 BKN100